sensor_id;sensor_type;location;lat;lon;timestamp;pressure;altitude;pressure_sealevel;temperature;humidity
11349;BME280;5729;43.570;27.826;2023-04-30T00:02:19;98766.16;;;9.13;100.00
11349;BME280;5729;43.570;27.826;2023-04-30T00:04:44;98755.06;;;9.14;100.00
11349;BME280;5729;43.570;27.826;2023-04-30T00:07:10;98759.03;;;9.01;100.00
11349;BME280;5729;43.570;27.826;2023-04-30T00:09:36;98763.47;;;9.13;100.00
11349;BME280;5729;43.570;27.826;2023-04-30T00:12:01;98763.03;;;9.10;100.00
11349;BME280;5729;43.570;27.826;2023-04-30T00:14:26;98756.81;;;9.06;100.00
11349;BME280;5729;43.570;27.826;2023-04-30T00:16:52;98755.97;;;9.02;100.00
11349;BME280;5729;43.570;27.826;2023-04-30T00:19:17;98768.91;;;9.16;100.00
11349;BME280;5729;43.570;27.826;2023-04-30T00:21:43;98765.22;;;9.05;100.00
11349;BME280;5729;43.570;27.826;2023-04-30T00:24:08;98762.97;;;9.07;100.00
11349;BME280;5729;43.570;27.826;2023-04-30T00:26:34;98766.56;;;9.15;100.00
11349;BME280;5729;43.570;27.826;2023-04-30T00:28:59;98761.13;;;9.11;100.00
11349;BME280;5729;43.570;27.826;2023-04-30T00:31:24;98761.84;;;9.08;100.00
11349;BME280;5729;43.570;27.826;2023-04-30T00:33:50;98766.09;;;9.09;100.00
11349;BME280;5729;43.570;27.826;2023-04-30T00:36:16;98760.63;;;9.05;100.00
11349;BME280;5729;43.570;27.826;2023-04-30T00:38:41;98763.66;;;9.04;100.00
11349;BME280;5729;43.570;27.826;2023-04-30T00:41:07;98761.34;;;9.02;100.00
11349;BME280;5729;43.570;27.826;2023-04-30T00:43:32;98769.91;;;9.08;100.00
11349;BME280;5729;43.570;27.826;2023-04-30T00:45:58;98767.47;;;9.03;100.00
11349;BME280;5729;43.570;27.826;2023-04-30T00:48:24;98761.72;;;9.01;100.00
11349;BME280;5729;43.570;27.826;2023-04-30T00:50:51;98762.97;;;8.88;100.00
11349;BME280;5729;43.570;27.826;2023-04-30T00:53:16;98766.91;;;8.74;100.00
11349;BME280;5729;43.570;27.826;2023-04-30T00:55:43;98772.00;;;8.80;100.00
11349;BME280;5729;43.570;27.826;2023-04-30T00:58:08;98766.22;;;8.78;100.00
11349;BME280;5729;43.570;27.826;2023-04-30T01:00:34;98768.81;;;8.74;100.00
11349;BME280;5729;43.570;27.826;2023-04-30T01:03:00;98766.81;;;8.71;100.00
11349;BME280;5729;43.570;27.826;2023-04-30T01:05:25;98765.88;;;8.63;100.00
11349;BME280;5729;43.570;27.826;2023-04-30T01:07:55;98769.09;;;8.69;100.00
11349;BME280;5729;43.570;27.826;2023-04-30T01:10:29;98766.94;;;8.59;100.00
11349;BME280;5729;43.570;27.826;2023-04-30T01:13:17;98762.53;;;8.51;100.00
11349;BME280;5729;43.570;27.826;2023-04-30T01:18:58;98755.88;;;8.29;100.00
11349;BME280;5729;43.570;27.826;2023-04-30T01:21:26;98769.13;;;8.37;100.00
11349;BME280;5729;43.570;27.826;2023-04-30T01:29:23;98755.38;;;8.23;100.00
11349;BME280;5729;43.570;27.826;2023-04-30T01:31:49;98753.19;;;8.29;100.00
11349;BME280;5729;43.570;27.826;2023-04-30T01:34:14;98754.88;;;8.33;100.00
11349;BME280;5729;43.570;27.826;2023-04-30T01:36:52;98748.59;;;8.29;100.00
11349;BME280;5729;43.570;27.826;2023-04-30T01:50:40;98736.72;;;8.30;100.00
11349;BME280;5729;43.570;27.826;2023-04-30T01:53:10;98739.94;;;8.36;100.00
11349;BME280;5729;43.570;27.826;2023-04-30T01:55:50;98738.56;;;8.26;100.00
11349;BME280;5729;43.570;27.826;2023-04-30T01:58:21;98736.06;;;8.33;100.00
11349;BME280;5729;43.570;27.826;2023-04-30T02:00:47;98744.69;;;8.27;100.00
11349;BME280;5729;43.570;27.826;2023-04-30T02:03:13;98742.09;;;8.30;100.00
11349;BME280;5729;43.570;27.826;2023-04-30T02:05:38;98731.38;;;8.30;100.00
11349;BME280;5729;43.570;27.826;2023-04-30T02:08:04;98746.97;;;8.41;100.00
11349;BME280;5729;43.570;27.826;2023-04-30T02:10:29;98744.53;;;8.35;100.00
11349;BME280;5729;43.570;27.826;2023-04-30T02:12:55;98734.22;;;8.37;100.00
11349;BME280;5729;43.570;27.826;2023-04-30T02:15:20;98735.88;;;8.42;100.00
11349;BME280;5729;43.570;27.826;2023-04-30T02:17:46;98739.25;;;8.39;100.00
11349;BME280;5729;43.570;27.826;2023-04-30T02:20:12;98733.88;;;8.39;100.00
11349;BME280;5729;43.570;27.826;2023-04-30T02:22:37;98739.94;;;8.36;100.00
11349;BME280;5729;43.570;27.826;2023-04-30T02:25:03;98730.84;;;8.41;100.00
11349;BME280;5729;43.570;27.826;2023-04-30T02:27:30;98734.31;;;8.41;100.00
11349;BME280;5729;43.570;27.826;2023-04-30T02:29:56;98729.63;;;8.38;100.00
11349;BME280;5729;43.570;27.826;2023-04-30T02:32:22;98709.88;;;8.30;100.00
11349;BME280;5729;43.570;27.826;2023-04-30T02:34:48;98735.34;;;8.36;100.00
11349;BME280;5729;43.570;27.826;2023-04-30T02:37:13;98729.16;;;8.32;100.00
11349;BME280;5729;43.570;27.826;2023-04-30T02:39:39;98733.03;;;8.35;100.00
11349;BME280;5729;43.570;27.826;2023-04-30T02:42:05;98724.22;;;8.34;100.00
11349;BME280;5729;43.570;27.826;2023-04-30T02:44:31;98729.16;;;8.32;100.00
11349;BME280;5729;43.570;27.826;2023-04-30T02:46:57;98720.53;;;8.27;100.00
11349;BME280;5729;43.570;27.826;2023-04-30T02:49:23;98722.72;;;8.37;100.00
11349;BME280;5729;43.570;27.826;2023-04-30T02:51:48;98726.94;;;8.38;100.00
11349;BME280;5729;43.570;27.826;2023-04-30T02:54:13;98720.97;;;8.29;100.00
11349;BME280;5729;43.570;27.826;2023-04-30T02:56:39;98728.06;;;8.37;100.00
11349;BME280;5729;43.570;27.826;2023-04-30T02:59:05;98723.16;;;8.39;100.00
11349;BME280;5729;43.570;27.826;2023-04-30T03:01:31;98726.94;;;8.38;100.00
11349;BME280;5729;43.570;27.826;2023-04-30T03:03:57;98729.38;;;8.43;100.00
11349;BME280;5729;43.570;27.826;2023-04-30T03:06:28;98729.16;;;8.32;100.00
11349;BME280;5729;43.570;27.826;2023-04-30T03:08:53;98721.09;;;8.32;100.00
11349;BME280;5729;43.570;27.826;2023-04-30T03:11:19;98727.75;;;8.38;100.00
11349;BME280;5729;43.570;27.826;2023-04-30T03:13:44;98727.75;;;8.38;100.00
11349;BME280;5729;43.570;27.826;2023-04-30T03:16:10;98719.63;;;8.35;100.00
11349;BME280;5729;43.570;27.826;2023-04-30T03:18:35;98723.22;;;8.43;100.00
11349;BME280;5729;43.570;27.826;2023-04-30T03:21:01;98728.06;;;8.37;100.00
11349;BME280;5729;43.570;27.826;2023-04-30T03:23:27;98722.88;;;8.44;100.00
11349;BME280;5729;43.570;27.826;2023-04-30T03:25:53;98720.81;;;8.37;100.00
11349;BME280;5729;43.570;27.826;2023-04-30T03:28:18;98738.56;;;8.42;100.00
11349;BME280;5729;43.570;27.826;2023-04-30T03:30:44;98746.69;;;8.30;100.00
11349;BME280;5729;43.570;27.826;2023-04-30T03:33:09;98746.63;;;8.42;100.00
11349;BME280;5729;43.570;27.826;2023-04-30T03:35:35;98751.31;;;8.45;100.00
11349;BME280;5729;43.570;27.826;2023-04-30T03:38:01;98757.25;;;8.54;100.00
11349;BME280;5729;43.570;27.826;2023-04-30T03:40:26;98754.91;;;8.53;100.00
11349;BME280;5729;43.570;27.826;2023-04-30T03:42:52;98755.69;;;8.53;100.00
11349;BME280;5729;43.570;27.826;2023-04-30T03:45:18;98758.13;;;8.43;100.00
11349;BME280;5729;43.570;27.826;2023-04-30T03:47:43;98760.81;;;8.43;100.00
11349;BME280;5729;43.570;27.826;2023-04-30T03:50:09;98759.94;;;8.54;100.00
11349;BME280;5729;43.570;27.826;2023-04-30T03:52:35;98742.53;;;8.48;100.00
11349;BME280;5729;43.570;27.826;2023-04-30T03:55:04;98761.50;;;8.40;100.00
11349;BME280;5729;43.570;27.826;2023-04-30T03:57:29;98760.28;;;8.53;100.00
11349;BME280;5729;43.570;27.826;2023-04-30T03:59:55;98766.78;;;8.52;100.00
11349;BME280;5729;43.570;27.826;2023-04-30T04:02:21;98760.31;;;8.37;100.00
11349;BME280;5729;43.570;27.826;2023-04-30T04:04:46;98762.03;;;8.45;100.00
11349;BME280;5729;43.570;27.826;2023-04-30T04:07:12;98759.75;;;8.47;100.00
11349;BME280;5729;43.570;27.826;2023-04-30T04:09:39;98763.31;;;8.51;100.00
11349;BME280;5729;43.570;27.826;2023-04-30T04:12:04;98773.53;;;8.61;100.00
11349;BME280;5729;43.570;27.826;2023-04-30T04:14:30;98766.59;;;8.60;100.00
11349;BME280;5729;43.570;27.826;2023-04-30T04:16:56;98774.59;;;8.41;100.00
11349;BME280;5729;43.570;27.826;2023-04-30T04:19:22;98761.84;;;8.54;100.00
11349;BME280;5729;43.570;27.826;2023-04-30T04:21:48;98776.97;;;8.62;100.00
11349;BME280;5729;43.570;27.826;2023-04-30T04:24:13;98776.72;;;8.67;100.00
11349;BME280;5729;43.570;27.826;2023-04-30T04:26:39;98780.88;;;8.64;100.00
11349;BME280;5729;43.570;27.826;2023-04-30T04:29:05;98784.34;;;8.65;100.00
11349;BME280;5729;43.570;27.826;2023-04-30T04:31:33;98778.44;;;8.75;100.00
11349;BME280;5729;43.570;27.826;2023-04-30T04:34:00;98781.81;;;8.72;100.00
11349;BME280;5729;43.570;27.826;2023-04-30T04:36:27;98782.03;;;8.83;100.00
11349;BME280;5729;43.570;27.826;2023-04-30T04:38:58;98787.16;;;8.88;100.00
11349;BME280;5729;43.570;27.826;2023-04-30T04:41:29;98787.81;;;9.00;100.00
11349;BME280;5729;43.570;27.826;2023-04-30T04:43:54;98781.78;;;9.07;100.00
11349;BME280;5729;43.570;27.826;2023-04-30T04:46:21;98786.69;;;9.01;100.00
11349;BME280;5729;43.570;27.826;2023-04-30T04:48:47;98773.50;;;9.16;100.00
11349;BME280;5729;43.570;27.826;2023-04-30T04:51:13;98777.47;;;9.22;100.00
11349;BME280;5729;43.570;27.826;2023-04-30T04:53:38;98781.50;;;9.31;100.00
11349;BME280;5729;43.570;27.826;2023-04-30T04:56:04;98772.22;;;9.29;100.00
11349;BME280;5729;43.570;27.826;2023-04-30T04:58:31;98774.34;;;9.39;100.00
11349;BME280;5729;43.570;27.826;2023-04-30T05:00:57;98775.63;;;9.45;100.00
11349;BME280;5729;43.570;27.826;2023-04-30T05:03:24;98777.53;;;9.44;100.00
11349;BME280;5729;43.570;27.826;2023-04-30T05:05:51;98773.91;;;9.56;100.00
11349;BME280;5729;43.570;27.826;2023-04-30T05:08:17;98783.38;;;9.69;100.00
11349;BME280;5729;43.570;27.826;2023-04-30T05:10:42;98782.38;;;9.77;100.00
11349;BME280;5729;43.570;27.826;2023-04-30T05:13:08;98780.75;;;9.73;100.00
11349;BME280;5729;43.570;27.826;2023-04-30T05:15:33;98793.41;;;9.72;100.00
11349;BME280;5729;43.570;27.826;2023-04-30T05:17:59;98790.63;;;9.88;100.00
11349;BME280;5729;43.570;27.826;2023-04-30T05:20:24;98789.25;;;9.98;100.00
11349;BME280;5729;43.570;27.826;2023-04-30T05:22:50;98797.09;;;10.06;100.00
11349;BME280;5729;43.570;27.826;2023-04-30T05:25:15;98800.69;;;10.14;100.00
11349;BME280;5729;43.570;27.826;2023-04-30T05:27:41;98798.25;;;10.28;100.00
11349;BME280;5729;43.570;27.826;2023-04-30T05:30:07;98802.81;;;10.24;100.00
11349;BME280;5729;43.570;27.826;2023-04-30T05:32:33;98795.72;;;10.39;100.00
11349;BME280;5729;43.570;27.826;2023-04-30T05:34:59;98801.69;;;10.51;100.00
11349;BME280;5729;43.570;27.826;2023-04-30T05:37:24;98812.25;;;10.64;100.00
11349;BME280;5729;43.570;27.826;2023-04-30T05:39:50;98801.91;;;10.66;100.00
11349;BME280;5729;43.570;27.826;2023-04-30T05:42:18;98789.63;;;10.68;100.00
11349;BME280;5729;43.570;27.826;2023-04-30T05:44:43;98801.06;;;10.88;100.00
11349;BME280;5729;43.570;27.826;2023-04-30T05:47:09;98806.00;;;10.82;100.00
11349;BME280;5729;43.570;27.826;2023-04-30T05:49:34;98815.69;;;10.87;100.00
11349;BME280;5729;43.570;27.826;2023-04-30T05:52:00;98803.53;;;11.00;100.00
11349;BME280;5729;43.570;27.826;2023-04-30T05:54:28;98799.75;;;11.05;100.00
11349;BME280;5729;43.570;27.826;2023-04-30T05:56:53;98801.88;;;11.22;100.00
11349;BME280;5729;43.570;27.826;2023-04-30T05:59:19;98805.06;;;11.27;100.00
11349;BME280;5729;43.570;27.826;2023-04-30T06:01:44;98797.88;;;11.39;100.00
11349;BME280;5729;43.570;27.826;2023-04-30T06:04:10;98794.28;;;11.27;100.00
11349;BME280;5729;43.570;27.826;2023-04-30T06:06:35;98803.09;;;11.24;100.00
11349;BME280;5729;43.570;27.826;2023-04-30T06:09:01;98804.44;;;11.41;100.00
11349;BME280;5729;43.570;27.826;2023-04-30T06:11:26;98798.34;;;11.48;100.00
11349;BME280;5729;43.570;27.826;2023-04-30T06:13:52;98797.94;;;11.46;100.00
11349;BME280;5729;43.570;27.826;2023-04-30T06:16:18;98791.81;;;11.52;100.00
11349;BME280;5729;43.570;27.826;2023-04-30T06:18:43;98799.75;;;11.72;100.00
11349;BME280;5729;43.570;27.826;2023-04-30T06:21:09;98801.09;;;11.88;100.00
11349;BME280;5729;43.570;27.826;2023-04-30T06:23:34;98799.66;;;11.98;100.00
11349;BME280;5729;43.570;27.826;2023-04-30T06:26:00;98792.50;;;12.16;100.00
11349;BME280;5729;43.570;27.826;2023-04-30T06:28:25;98797.53;;;12.18;100.00
11349;BME280;5729;43.570;27.826;2023-04-30T06:30:51;98803.34;;;12.23;100.00
11349;BME280;5729;43.570;27.826;2023-04-30T06:33:18;98797.25;;;12.30;98.63
11349;BME280;5729;43.570;27.826;2023-04-30T06:35:43;98796.16;;;12.42;94.05
11349;BME280;5729;43.570;27.826;2023-04-30T06:38:09;98794.69;;;12.51;88.80
11349;BME280;5729;43.570;27.826;2023-04-30T06:40:34;98801.34;;;12.64;84.14
11349;BME280;5729;43.570;27.826;2023-04-30T06:43:00;98803.72;;;12.77;85.18
11349;BME280;5729;43.570;27.826;2023-04-30T06:45:25;98814.25;;;12.89;81.94
11349;BME280;5729;43.570;27.826;2023-04-30T06:47:51;98804.72;;;13.09;80.04
11349;BME280;5729;43.570;27.826;2023-04-30T06:50:17;98808.28;;;13.20;76.59
11349;BME280;5729;43.570;27.826;2023-04-30T06:52:43;98797.47;;;13.27;72.24
11349;BME280;5729;43.570;27.826;2023-04-30T06:55:08;98805.59;;;13.34;70.96
11349;BME280;5729;43.570;27.826;2023-04-30T06:57:34;98806.81;;;13.48;72.22
11349;BME280;5729;43.570;27.826;2023-04-30T07:00:05;98789.78;;;13.40;70.21
11349;BME280;5729;43.570;27.826;2023-04-30T07:02:31;98802.22;;;13.66;67.17
11349;BME280;5729;43.570;27.826;2023-04-30T07:04:56;98803.38;;;13.61;68.71
11349;BME280;5729;43.570;27.826;2023-04-30T07:07:22;98810.00;;;13.74;67.04
11349;BME280;5729;43.570;27.826;2023-04-30T07:09:48;98804.59;;;13.85;61.84
11349;BME280;5729;43.570;27.826;2023-04-30T07:12:13;98800.72;;;13.82;60.44
11349;BME280;5729;43.570;27.826;2023-04-30T07:14:38;98808.88;;;14.04;60.44
11349;BME280;5729;43.570;27.826;2023-04-30T07:17:04;98804.66;;;14.21;63.56
11349;BME280;5729;43.570;27.826;2023-04-30T07:19:30;98818.19;;;14.31;60.43
11349;BME280;5729;43.570;27.826;2023-04-30T07:21:56;98817.06;;;14.43;59.03
11349;BME280;5729;43.570;27.826;2023-04-30T07:24:22;98802.75;;;14.42;58.55
11349;BME280;5729;43.570;27.826;2023-04-30T07:26:47;98813.97;;;14.55;58.64
11349;BME280;5729;43.570;27.826;2023-04-30T07:29:13;98808.16;;;14.53;58.07
11349;BME280;5729;43.570;27.826;2023-04-30T07:31:38;98824.81;;;14.55;53.55
11349;BME280;5729;43.570;27.826;2023-04-30T07:34:04;98815.50;;;14.60;54.17
11349;BME280;5729;43.570;27.826;2023-04-30T07:36:29;98814.31;;;14.71;52.58
11349;BME280;5729;43.570;27.826;2023-04-30T07:38:55;98817.78;;;14.86;53.19
11349;BME280;5729;43.570;27.826;2023-04-30T07:41:20;98799.56;;;14.83;53.06
11349;BME280;5729;43.570;27.826;2023-04-30T07:43:46;98791.06;;;14.77;51.68
11349;BME280;5729;43.570;27.826;2023-04-30T07:46:11;98808.09;;;14.96;51.19
11349;BME280;5729;43.570;27.826;2023-04-30T07:48:37;98800.28;;;15.08;48.55
11349;BME280;5729;43.570;27.826;2023-04-30T07:51:03;98803.34;;;15.21;48.21
11349;BME280;5729;43.570;27.826;2023-04-30T07:53:29;98799.00;;;15.38;48.11
11349;BME280;5729;43.570;27.826;2023-04-30T07:55:54;98798.59;;;15.43;47.16
11349;BME280;5729;43.570;27.826;2023-04-30T07:58:20;98804.41;;;15.55;45.86
11349;BME280;5729;43.570;27.826;2023-04-30T08:00:45;98819.09;;;15.69;44.26
11349;BME280;5729;43.570;27.826;2023-04-30T08:03:11;98802.00;;;15.68;44.92
11349;BME280;5729;43.570;27.826;2023-04-30T08:05:36;98822.09;;;15.81;43.60
11349;BME280;5729;43.570;27.826;2023-04-30T08:08:02;98813.97;;;15.78;45.29
11349;BME280;5729;43.570;27.826;2023-04-30T08:10:27;98805.84;;;15.78;44.35
11349;BME280;5729;43.570;27.826;2023-04-30T08:12:53;98802.63;;;15.93;45.72
11349;BME280;5729;43.570;27.826;2023-04-30T08:15:18;98798.63;;;16.12;47.88
11349;BME280;5729;43.570;27.826;2023-04-30T08:17:50;98798.34;;;17.84;46.28
11349;BME280;5729;43.570;27.826;2023-04-30T08:20:16;98794.81;;;22.39;37.38
11349;BME280;5729;43.570;27.826;2023-04-30T08:22:45;98799.81;;;25.37;30.97
11349;BME280;5729;43.570;27.826;2023-04-30T08:25:11;98802.88;;;28.47;26.51
11349;BME280;5729;43.570;27.826;2023-04-30T08:27:37;98792.91;;;31.57;22.94
11349;BME280;5729;43.570;27.826;2023-04-30T08:30:04;98791.28;;;34.53;19.91
11349;BME280;5729;43.570;27.826;2023-04-30T08:32:32;98791.94;;;33.56;20.25
11349;BME280;5729;43.570;27.826;2023-04-30T08:34:58;98790.72;;;35.48;18.78
11349;BME280;5729;43.570;27.826;2023-04-30T08:37:23;98789.25;;;36.19;17.81
11349;BME280;5729;43.570;27.826;2023-04-30T08:39:49;98793.75;;;35.82;17.96
11349;BME280;5729;43.570;27.826;2023-04-30T08:42:16;98785.44;;;36.82;17.16
11349;BME280;5729;43.570;27.826;2023-04-30T08:44:43;98794.31;;;34.74;18.15
11349;BME280;5729;43.570;27.826;2023-04-30T08:47:12;98782.03;;;35.65;17.83
11349;BME280;5729;43.570;27.826;2023-04-30T08:49:39;98747.19;;;37.68;16.23
11349;BME280;5729;43.570;27.826;2023-04-30T08:52:05;98782.13;;;37.18;16.92
11349;BME280;5729;43.570;27.826;2023-04-30T08:54:30;98781.38;;;36.17;16.78
11349;BME280;5729;43.570;27.826;2023-04-30T08:56:57;98773.72;;;36.18;17.18
11349;BME280;5729;43.570;27.826;2023-04-30T08:59:22;98772.63;;;36.60;16.48
11349;BME280;5729;43.570;27.826;2023-04-30T09:01:48;98777.53;;;37.49;16.30
11349;BME280;5729;43.570;27.826;2023-04-30T09:04:13;98777.22;;;38.30;15.42
11349;BME280;5729;43.570;27.826;2023-04-30T09:06:39;98777.38;;;36.65;17.04
11349;BME280;5729;43.570;27.826;2023-04-30T09:09:12;98779.19;;;37.23;15.83
11349;BME280;5729;43.570;27.826;2023-04-30T09:11:38;98764.94;;;37.63;15.63
11349;BME280;5729;43.570;27.826;2023-04-30T09:14:04;98775.16;;;38.23;15.23
11349;BME280;5729;43.570;27.826;2023-04-30T09:16:47;98770.63;;;37.29;16.03
11349;BME280;5729;43.570;27.826;2023-04-30T09:19:26;98768.03;;;38.65;14.82
11349;BME280;5729;43.570;27.826;2023-04-30T09:21:51;98766.81;;;38.09;15.25
11349;BME280;5729;43.570;27.826;2023-04-30T09:24:17;98765.50;;;37.06;16.07
11349;BME280;5729;43.570;27.826;2023-04-30T09:26:44;98749.94;;;37.05;15.72
11349;BME280;5729;43.570;27.826;2023-04-30T09:29:11;98744.84;;;36.83;16.11
11349;BME280;5729;43.570;27.826;2023-04-30T09:31:38;98753.06;;;38.06;15.65
11349;BME280;5729;43.570;27.826;2023-04-30T09:34:04;98745.16;;;38.69;15.34
11349;BME280;5729;43.570;27.826;2023-04-30T09:36:30;98752.09;;;38.60;15.70
11349;BME280;5729;43.570;27.826;2023-04-30T09:39:05;98751.22;;;38.44;15.90
11349;BME280;5729;43.570;27.826;2023-04-30T09:41:31;98737.03;;;37.44;15.96
11349;BME280;5729;43.570;27.826;2023-04-30T09:43:57;98734.47;;;37.54;15.82
11349;BME280;5729;43.570;27.826;2023-04-30T09:46:33;98735.03;;;37.52;16.22
11349;BME280;5729;43.570;27.826;2023-04-30T09:49:02;98742.44;;;36.00;16.20
11349;BME280;5729;43.570;27.826;2023-04-30T09:51:28;98732.22;;;36.63;16.49
11349;BME280;5729;43.570;27.826;2023-04-30T09:53:54;98739.94;;;36.97;16.67
11349;BME280;5729;43.570;27.826;2023-04-30T09:56:22;98736.75;;;37.55;15.66
11349;BME280;5729;43.570;27.826;2023-04-30T09:58:52;98732.38;;;37.67;15.91
11349;BME280;5729;43.570;27.826;2023-04-30T10:01:19;98738.09;;;36.13;16.76
11349;BME280;5729;43.570;27.826;2023-04-30T10:03:46;98739.75;;;36.21;16.48
11349;BME280;5729;43.570;27.826;2023-04-30T10:06:13;98733.25;;;36.26;16.62
11349;BME280;5729;43.570;27.826;2023-04-30T10:08:42;98733.63;;;36.70;16.93
11349;BME280;5729;43.570;27.826;2023-04-30T10:11:09;98723.28;;;36.65;16.95
11349;BME280;5729;43.570;27.826;2023-04-30T10:13:59;98753.34;;;36.30;16.93
11349;BME280;5729;43.570;27.826;2023-04-30T10:19:10;98724.44;;;34.87;18.03
11349;BME280;5729;43.570;27.826;2023-04-30T10:21:39;98725.16;;;34.31;18.17
11349;BME280;5729;43.570;27.826;2023-04-30T10:24:05;98722.75;;;34.78;17.70
11349;BME280;5729;43.570;27.826;2023-04-30T10:26:31;98724.63;;;35.08;17.38
11349;BME280;5729;43.570;27.826;2023-04-30T10:28:58;98711.91;;;34.32;17.94
11349;BME280;5729;43.570;27.826;2023-04-30T10:31:25;98713.06;;;33.69;18.30
11349;BME280;5729;43.570;27.826;2023-04-30T10:36:49;98730.97;;;32.89;19.35
11349;BME280;5729;43.570;27.826;2023-04-30T10:39:21;98722.16;;;32.74;19.55
11349;BME280;5729;43.570;27.826;2023-04-30T10:41:47;98732.34;;;32.71;19.27
11349;BME280;5729;43.570;27.826;2023-04-30T10:44:20;98718.09;;;32.75;19.04
11349;BME280;5729;43.570;27.826;2023-04-30T10:46:46;98726.97;;;32.79;19.54
11349;BME280;5729;43.570;27.826;2023-04-30T10:49:11;98728.00;;;33.17;19.28
11349;BME280;5729;43.570;27.826;2023-04-30T10:51:49;98727.53;;;33.07;19.27
11349;BME280;5729;43.570;27.826;2023-04-30T10:54:27;98719.09;;;34.03;19.17
11349;BME280;5729;43.570;27.826;2023-04-30T10:56:54;98714.03;;;34.01;18.34
11349;BME280;5729;43.570;27.826;2023-04-30T10:59:34;98728.28;;;33.98;18.83
11349;BME280;5729;43.570;27.826;2023-04-30T11:02:00;98730.63;;;33.04;19.51
11349;BME280;5729;43.570;27.826;2023-04-30T11:04:27;98722.66;;;33.49;18.92
11349;BME280;5729;43.570;27.826;2023-04-30T11:09:19;98715.53;;;32.83;20.32
11349;BME280;5729;43.570;27.826;2023-04-30T11:11:45;98717.94;;;31.65;20.79
11349;BME280;5729;43.570;27.826;2023-04-30T11:14:19;98732.03;;;30.83;20.80
11349;BME280;5729;43.570;27.826;2023-04-30T11:16:48;98720.50;;;29.51;22.26
11349;BME280;5729;43.570;27.826;2023-04-30T11:19:14;98711.00;;;30.01;21.75
11349;BME280;5729;43.570;27.826;2023-04-30T11:21:41;98719.88;;;29.68;22.12
11349;BME280;5729;43.570;27.826;2023-04-30T11:24:06;98726.44;;;28.21;23.75
11349;BME280;5729;43.570;27.826;2023-04-30T11:27:03;98730.28;;;29.47;22.53
11349;BME280;5729;43.570;27.826;2023-04-30T11:29:32;98714.03;;;29.34;22.82
11349;BME280;5729;43.570;27.826;2023-04-30T11:32:03;98706.75;;;30.11;21.48
11349;BME280;5729;43.570;27.826;2023-04-30T11:34:29;98717.34;;;29.70;22.52
11349;BME280;5729;43.570;27.826;2023-04-30T11:36:57;98711.34;;;29.82;22.58
11349;BME280;5729;43.570;27.826;2023-04-30T11:39:25;98717.16;;;29.16;22.97
11349;BME280;5729;43.570;27.826;2023-04-30T11:41:53;98720.06;;;29.95;22.27
11349;BME280;5729;43.570;27.826;2023-04-30T11:44:24;98702.31;;;30.36;22.14
11349;BME280;5729;43.570;27.826;2023-04-30T11:46:50;98718.69;;;29.48;22.08
11349;BME280;5729;43.570;27.826;2023-04-30T11:49:15;98722.97;;;28.46;23.14
11349;BME280;5729;43.570;27.826;2023-04-30T11:51:41;98709.03;;;27.65;23.84
11349;BME280;5729;43.570;27.826;2023-04-30T11:54:07;98708.47;;;28.57;23.77
11349;BME280;5729;43.570;27.826;2023-04-30T11:56:36;98705.09;;;28.93;23.16
11349;BME280;5729;43.570;27.826;2023-04-30T11:59:09;98701.44;;;29.70;22.79
11349;BME280;5729;43.570;27.826;2023-04-30T12:01:34;98688.69;;;29.52;23.31
11349;BME280;5729;43.570;27.826;2023-04-30T12:04:01;98699.31;;;29.22;23.31
11349;BME280;5729;43.570;27.826;2023-04-30T12:06:31;98703.28;;;29.47;22.91
11349;BME280;5729;43.570;27.826;2023-04-30T12:09:01;98695.78;;;29.22;23.22
11349;BME280;5729;43.570;27.826;2023-04-30T12:11:30;98701.34;;;29.27;23.21
11349;BME280;5729;43.570;27.826;2023-04-30T12:14:03;98697.28;;;28.71;23.10
11349;BME280;5729;43.570;27.826;2023-04-30T12:16:50;98704.59;;;29.20;23.29
11349;BME280;5729;43.570;27.826;2023-04-30T12:19:17;98700.19;;;29.71;22.74
11349;BME280;5729;43.570;27.826;2023-04-30T12:21:44;98696.28;;;29.26;22.73
11349;BME280;5729;43.570;27.826;2023-04-30T12:24:14;98707.28;;;28.02;24.37
11349;BME280;5729;43.570;27.826;2023-04-30T12:26:41;98707.06;;;28.87;23.59
11349;BME280;5729;43.570;27.826;2023-04-30T12:29:09;98699.88;;;29.64;23.01
11349;BME280;5729;43.570;27.826;2023-04-30T12:31:36;98709.66;;;30.44;21.93
11349;BME280;5729;43.570;27.826;2023-04-30T12:34:03;98689.53;;;30.01;22.19
11349;BME280;5729;43.570;27.826;2023-04-30T12:36:30;98700.13;;;29.03;23.68
11349;BME280;5729;43.570;27.826;2023-04-30T12:39:07;98700.19;;;29.08;23.76
11349;BME280;5729;43.570;27.826;2023-04-30T12:41:40;98695.34;;;28.57;23.90
11349;BME280;5729;43.570;27.826;2023-04-30T12:44:40;98708.38;;;28.10;24.30
11349;BME280;5729;43.570;27.826;2023-04-30T12:47:06;98700.31;;;28.27;24.75
11349;BME280;5729;43.570;27.826;2023-04-30T12:49:35;98703.31;;;27.89;24.99
11349;BME280;5729;43.570;27.826;2023-04-30T12:52:07;98686.72;;;28.49;24.90
11349;BME280;5729;43.570;27.826;2023-04-30T12:54:34;98698.31;;;28.74;24.28
11349;BME280;5729;43.570;27.826;2023-04-30T12:57:11;98697.03;;;28.49;24.59
11349;BME280;5729;43.570;27.826;2023-04-30T12:59:57;98679.81;;;28.39;24.59
11349;BME280;5729;43.570;27.826;2023-04-30T13:02:25;98688.41;;;28.67;24.62
11349;BME280;5729;43.570;27.826;2023-04-30T13:04:52;98704.63;;;28.74;24.27
11349;BME280;5729;43.570;27.826;2023-04-30T13:07:18;98695.22;;;27.06;25.22
11349;BME280;5729;43.570;27.826;2023-04-30T13:09:43;98697.16;;;27.99;26.15
11349;BME280;5729;43.570;27.826;2023-04-30T13:12:08;98703.25;;;28.03;24.91
11349;BME280;5729;43.570;27.826;2023-04-30T13:14:34;98674.75;;;27.97;25.02
11349;BME280;5729;43.570;27.826;2023-04-30T13:17:00;98676.50;;;28.61;25.30
11349;BME280;5729;43.570;27.826;2023-04-30T13:19:30;98677.16;;;28.50;25.31
11349;BME280;5729;43.570;27.826;2023-04-30T13:21:56;98690.59;;;27.47;25.29
11349;BME280;5729;43.570;27.826;2023-04-30T13:24:21;98692.88;;;27.98;25.53
11349;BME280;5729;43.570;27.826;2023-04-30T13:26:47;98692.16;;;27.33;25.70
11349;BME280;5729;43.570;27.826;2023-04-30T13:29:13;98690.47;;;27.06;25.65